Time;durP1;ratioP1;P1;durP2;ratioP2;P2;SDS_P1;SDS_P2;PMS_P1;PMS_P2;Temp;Humidity;BMP_temperature;BMP_pressure;BME280_temperature;BME280_humidity;BME280_pressure;Samples;Min_cycle;Max_cycle;Signal;HPM_P1;HPM_P2
2023/04/15 00:00:59;;;;;;;;;;;;;;;30.26;61.50;100795.63;5078977;27;66741;-46
2023/04/15 00:03:29;;;;;;;;;;;;;;;30.34;71.54;100800.78;5077151;27;70327;-47
2023/04/15 00:06:00;;;;;;;;;;;;;;;30.36;75.46;100789.72;5072845;27;66620;-46
2023/04/15 00:08:30;;;;;;;;;;;;;;;30.45;74.95;100794.66;5077429;27;70275;-45
2023/04/15 00:11:04;;;;;;;;;;;;;;;30.56;74.56;100800.41;5073859;27;66096;-45
2023/04/15 00:13:34;;;;;;;;;;;;;;;30.62;76.38;100800.38;5073186;27;70694;-45
2023/04/15 00:16:06;;;;;;;;;;;;;;;30.70;76.39;100805.50;5073827;27;66151;-44
2023/04/15 00:18:36;;;;;;;;;;;;;;;30.77;76.75;100812.75;5075894;27;69725;-46
2023/04/15 00:21:06;;;;;;;;;;;;;;;30.80;76.25;100813.16;5075010;27;66185;-46
2023/04/15 00:23:37;;;;;;;;;;;;;;;30.82;77.19;100819.19;5073092;27;70339;-46
2023/04/15 00:26:07;;;;;;;;;;;;;;;30.87;76.68;100821.19;5073862;27;65840;-46
2023/04/15 00:28:38;;;;;;;;;;;;;;;30.88;76.93;100814.75;5075118;27;70980;-46
2023/04/15 00:31:08;;;;;;;;;;;;;;;30.92;76.90;100821.38;5073582;27;65052;-45
2023/04/15 00:33:39;;;;;;;;;;;;;;;30.93;76.76;100831.19;5073403;28;70655;-47
2023/04/15 00:36:10;;;;;;;;;;;;;;;30.90;77.21;100837.03;5064467;27;66149;-46
2023/04/15 00:38:40;;;;;;;;;;;;;;;30.89;74.75;100840.78;5073994;27;69152;-46
2023/04/15 00:41:11;;;;;;;;;;;;;;;30.91;72.61;100838.69;5077061;27;68218;-46
2023/04/15 00:43:42;;;;;;;;;;;;;;;30.93;70.93;100842.00;5077597;27;70676;-47
2023/04/15 00:46:14;;;;;;;;;;;;;;;30.96;70.41;100846.97;5081167;27;67269;-50
2023/04/15 00:48:45;;;;;;;;;;;;;;;31.00;69.71;100848.19;5067325;27;69736;-47
2023/04/15 00:51:15;;;;;;;;;;;;;;;31.04;69.52;100844.00;5082227;27;66447;-46
2023/04/15 00:53:45;;;;;;;;;;;;;;;31.07;69.35;100848.97;5058777;28;70207;-53
2023/04/15 00:56:16;;;;;;;;;;;;;;;31.11;69.24;100849.34;5062602;28;66727;-47
2023/04/15 00:58:47;;;;;;;;;;;;;;;31.12;68.68;100846.41;5059827;28;70233;-48
2023/04/15 01:01:20;;;;;;;;;;;;;;;31.14;68.78;100863.25;5059696;28;65678;-45
2023/04/15 01:03:51;;;;;;;;;;;;;;;31.18;68.69;100863.66;5059253;28;70043;-45
2023/04/15 01:06:22;;;;;;;;;;;;;;;31.21;68.94;100860.50;5058027;28;65249;-45
2023/04/15 01:08:53;;;;;;;;;;;;;;;31.22;68.50;100855.91;5066518;28;70257;-46
2023/04/15 01:11:24;;;;;;;;;;;;;;;31.24;68.71;100864.66;5070532;28;66705;-45
2023/04/15 01:13:58;;;;;;;;;;;;;;;31.27;69.38;100858.78;5059174;28;70536;-46
2023/04/15 01:16:29;;;;;;;;;;;;;;;31.28;69.43;100871.28;5063869;28;66312;-46
2023/04/15 01:19:00;;;;;;;;;;;;;;;31.29;69.09;100862.13;5056765;28;69328;-45
2023/04/15 01:21:32;;;;;;;;;;;;;;;31.31;68.95;100865.41;5054859;28;66824;-46
2023/04/15 01:24:09;;;;;;;;;;;;;;;31.33;69.03;100874.97;5057085;27;69867;-45
2023/04/15 01:26:39;;;;;;;;;;;;;;;31.33;69.18;100861.41;5055275;28;66805;-46
2023/04/15 01:29:12;;;;;;;;;;;;;;;31.39;72.21;100873.28;5053217;28;70107;-46
2023/04/15 01:31:51;;;;;;;;;;;;;;;31.51;75.27;100871.50;5045360;28;66965;-46
2023/04/15 01:34:41;;;;;;;;;;;;;;;31.48;75.97;100877.38;5055444;28;70626;-48
2023/04/15 01:37:29;;;;;;;;;;;;;;;31.46;75.75;100863.22;5056125;28;67109;-47
2023/04/15 01:39:59;;;;;;;;;;;;;;;31.47;76.11;100864.84;5055801;28;70439;-47
2023/04/15 01:42:29;;;;;;;;;;;;;;;31.50;76.13;100864.41;5053830;28;65377;-46
2023/04/15 01:45:00;;;;;;;;;;;;;;;31.51;76.13;100871.50;5068518;27;69642;-46
2023/04/15 01:47:32;;;;;;;;;;;;;;;31.52;76.15;100872.31;5054502;28;64403;-45
2023/04/15 01:50:04;;;;;;;;;;;;;;;31.57;75.88;100870.59;5058142;27;68872;-45
2023/04/15 01:52:36;;;;;;;;;;;;;;;31.58;76.04;100872.25;5054374;28;64444;-45
2023/04/15 01:55:08;;;;;;;;;;;;;;;31.59;75.76;100873.06;5076046;28;68760;-46
2023/04/15 01:57:40;;;;;;;;;;;;;;;31.61;75.33;100874.50;5073950;27;65901;-46
2023/04/15 02:00:12;;;;;;;;;;;;;;;31.49;75.80;100857.34;5074823;27;69513;-45
2023/04/15 02:02:43;;;;;;;;;;;;;;;31.50;74.44;100864.41;5079168;27;65154;-46
2023/04/15 02:05:16;;;;;;;;;;;;;;;31.53;73.10;100860.41;5060034;27;70008;-46
2023/04/15 02:07:49;;;;;;;;;;;;;;;31.57;72.30;100859.75;5079690;27;64527;-46
2023/04/15 02:10:20;;;;;;;;;;;;;;;31.61;72.37;100851.97;5080119;27;70093;-47
2023/04/15 02:12:53;;;;;;;;;;;;;;;31.66;71.71;100851.31;5060518;27;65845;-47
2023/04/15 02:15:24;;;;;;;;;;;;;;;31.69;71.37;100845.44;5066705;27;69738;-45
2023/04/15 02:17:56;;;;;;;;;;;;;;;31.73;71.10;100854.75;5078551;27;65680;-47
2023/04/15 02:20:29;;;;;;;;;;;;;;;31.75;70.82;100845.34;5093417;27;70611;-46
2023/04/15 02:23:01;;;;;;;;;;;;;;;31.77;70.77;100853.25;5078733;27;66228;-46
2023/04/15 02:25:33;;;;;;;;;;;;;;;31.82;70.35;100861.56;5078982;27;69790;-46
2023/04/15 02:28:06;;;;;;;;;;;;;;;31.86;70.29;100851.06;5074620;27;66006;-46
2023/04/15 02:30:39;;;;;;;;;;;;;;;31.88;70.13;100863.34;5061937;28;69728;-46
2023/04/15 02:33:13;;;;;;;;;;;;;;;31.92;69.86;100851.00;5079282;27;68044;-46
2023/04/15 02:35:45;;;;;;;;;;;;;;;31.93;69.79;100858.09;5074799;27;69966;-46
2023/04/15 02:38:16;;;;;;;;;;;;;;;31.75;69.79;100822.81;5077393;27;66457;-46
2023/04/15 02:40:49;;;;;;;;;;;;;;;31.97;69.78;100848.44;5077054;27;69882;-46
2023/04/15 02:43:21;;;;;;;;;;;;;;;32.01;69.78;100854.22;5089809;27;65759;-47
2023/04/15 02:45:53;;;;;;;;;;;;;;;32.03;69.58;100852.13;5072514;27;69691;-45
2023/04/15 02:48:25;;;;;;;;;;;;;;;32.04;69.46;100849.19;5075602;27;65768;-46
2023/04/15 02:51:13;;;;;;;;;;;;;;;32.07;69.48;100847.91;5058527;28;69244;-46
2023/04/15 02:53:44;;;;;;;;;;;;;;;32.09;69.23;100844.94;5075410;27;66246;-47
2023/04/15 02:56:18;;;;;;;;;;;;;;;32.12;69.59;100844.50;5090151;27;70430;-46
2023/04/15 02:58:50;;;;;;;;;;;;;;;32.13;69.48;100836.13;5060097;28;66070;-46
2023/04/15 03:01:21;;;;;;;;;;;;;;;32.15;69.37;100827.75;5072860;27;70075;-46
2023/04/15 03:03:53;;;;;;;;;;;;;;;32.17;69.39;100826.47;5073695;27;65372;-46
2023/04/15 03:06:25;;;;;;;;;;;;;;;32.19;69.19;100823.53;5077861;27;70404;-47
2023/04/15 03:08:58;;;;;;;;;;;;;;;32.22;69.48;100833.91;5069872;27;66127;-46
2023/04/15 03:11:39;;;;;;;;;;;;;;;32.24;69.25;100820.94;5058755;28;69931;-46
2023/04/15 03:14:11;;;;;;;;;;;;;;;32.25;69.32;100822.59;5079651;27;65209;-47
2023/04/15 03:16:49;;;;;;;;;;;;;;;32.28;69.22;100822.13;5062003;27;69324;-45
2023/04/15 03:19:21;;;;;;;;;;;;;;;32.31;69.04;100816.25;5095464;27;66203;-47
2023/04/15 03:21:52;;;;;;;;;;;;;;;32.33;69.16;100805.97;5059637;28;68545;-47
2023/04/15 03:24:23;;;;;;;;;;;;;;;32.36;68.90;100812.84;5060676;28;65745;-46
2023/04/15 03:26:57;;;;;;;;;;;;;;;32.38;69.02;100800.69;5059177;27;68957;-46
2023/04/15 03:29:29;;;;;;;;;;;;;;;32.40;68.76;100787.72;5093340;27;65313;-46
2023/04/15 03:32:00;;;;;;;;;;;;;;;32.41;68.72;100783.94;5075931;28;69897;-46
2023/04/15 03:34:35;;;;;;;;;;;;;;;32.44;68.33;100785.34;5054865;28;65949;-46
2023/04/15 03:37:26;;;;;;;;;;;;;;;32.45;68.46;100779.69;5059792;27;70450;-47
2023/04/15 03:39:58;;;;;;;;;;;;;;;32.47;68.33;100766.72;5074632;28;65754;-46
2023/04/15 03:42:29;;;;;;;;;;;;;;;32.51;68.19;100771.69;5074462;27;70103;-46
2023/04/15 03:45:00;;;;;;;;;;;;;;;32.51;68.55;100772.50;5077001;27;64855;-46
2023/04/15 03:47:32;;;;;;;;;;;;;;;32.46;68.62;100765.09;5088617;27;68959;-46
2023/04/15 03:50:03;;;;;;;;;;;;;;;32.42;68.74;100758.44;5072627;27;65548;-46
2023/04/15 03:52:35;;;;;;;;;;;;;;;32.36;69.18;100759.38;5074375;27;70664;-46
2023/04/15 03:55:08;;;;;;;;;;;;;;;32.35;69.33;100759.63;5074371;27;66176;-46
2023/04/15 03:57:40;;;;;;;;;;;;;;;32.33;69.39;100754.41;5074591;27;69804;-46
2023/04/15 04:00:12;;;;;;;;;;;;;;;32.29;69.43;100747.81;5078394;27;66250;-46
2023/04/15 04:02:44;;;;;;;;;;;;;;;32.34;69.29;100755.22;5076354;27;69953;-45
2023/04/15 04:05:16;;;;;;;;;;;;;;;32.30;69.08;100730.44;5074864;27;66892;-46
2023/04/15 04:07:47;;;;;;;;;;;;;;;32.31;69.24;100729.38;5077511;27;69756;-46
2023/04/15 04:10:19;;;;;;;;;;;;;;;32.10;69.29;100683.81;5074933;27;65173;-47
2023/04/15 04:12:50;;;;;;;;;;;;;;;32.34;69.25;100717.22;5077932;27;67385;-45
2023/04/15 04:15:22;;;;;;;;;;;;;;;32.35;69.27;100718.91;5092672;27;64670;-46
2023/04/15 04:17:54;;;;;;;;;;;;;;;32.36;69.02;100715.94;5076544;27;68408;-46
2023/04/15 04:20:26;;;;;;;;;;;;;;;32.37;69.12;100706.72;5080371;27;66071;-45
2023/04/15 04:22:57;;;;;;;;;;;;;;;32.38;68.81;100702.97;5081134;27;68989;-45
2023/04/15 04:25:29;;;;;;;;;;;;;;;32.40;69.04;100700.84;5077073;27;65920;-47
2023/04/15 04:28:00;;;;;;;;;;;;;;;32.42;69.09;100693.28;5059082;27;69582;-47
2023/04/15 04:30:32;;;;;;;;;;;;;;;32.45;69.02;100698.22;5081898;27;66214;-46
2023/04/15 04:33:04;;;;;;;;;;;;;;;32.47;68.98;100685.28;5077295;27;70273;-46
2023/04/15 04:35:36;;;;;;;;;;;;;;;32.49;68.97;100688.59;5080039;27;66210;-47
2023/04/15 04:38:08;;;;;;;;;;;;;;;32.55;69.07;100686.00;5081139;28;68996;-46
2023/04/15 04:40:40;;;;;;;;;;;;;;;32.62;68.59;100681.25;5080249;27;65994;-47
2023/04/15 04:43:12;;;;;;;;;;;;;;;32.69;68.08;100676.53;5077708;27;69631;-47
2023/04/15 04:45:43;;;;;;;;;;;;;;;32.75;67.81;100669.34;5078000;27;66632;-46
2023/04/15 04:48:15;;;;;;;;;;;;;;;32.81;67.47;100673.81;5081810;27;69507;-47
2023/04/15 04:50:47;;;;;;;;;;;;;;;32.85;67.20;100664.13;5078520;27;66119;-46
2023/04/15 04:53:18;;;;;;;;;;;;;;;32.89;67.10;100657.97;5078524;27;68793;-46
2023/04/15 04:55:51;;;;;;;;;;;;;;;32.92;66.56;100662.91;5057126;28;65794;-47
2023/04/15 04:58:22;;;;;;;;;;;;;;;32.95;66.46;100658.91;5078098;27;69546;-47
2023/04/15 05:00:54;;;;;;;;;;;;;;;32.97;66.43;100655.94;5079834;27;65548;-46
2023/04/15 05:03:26;;;;;;;;;;;;;;;33.00;66.47;100650.06;5080351;27;70271;-47
2023/04/15 05:05:58;;;;;;;;;;;;;;;33.03;66.04;100650.41;5078522;27;65965;-45
2023/04/15 05:08:29;;;;;;;;;;;;;;;33.05;66.13;100636.59;5044377;27;69864;-46
2023/04/15 05:11:01;;;;;;;;;;;;;;;33.04;65.92;100635.75;5081048;27;64868;-45
2023/04/15 05:13:32;;;;;;;;;;;;;;;33.06;65.72;100638.22;5071130;27;69742;-46
2023/04/15 05:16:05;;;;;;;;;;;;;;;33.08;65.89;100630.66;5062391;28;66412;-45
2023/04/15 05:18:36;;;;;;;;;;;;;;;33.07;65.55;100626.28;5079444;27;69358;-46
2023/04/15 05:21:09;;;;;;;;;;;;;;;33.11;65.14;100630.19;5074582;27;65248;-45
2023/04/15 05:23:40;;;;;;;;;;;;;;;33.08;65.01;100615.19;5081244;27;69586;-46
2023/04/15 05:26:12;;;;;;;;;;;;;;;33.03;65.49;100611.53;5081341;27;66366;-45
2023/04/15 05:28:43;;;;;;;;;;;;;;;33.00;65.69;100606.59;5080478;27;70285;-46
2023/04/15 05:31:15;;;;;;;;;;;;;;;32.96;65.86;100602.66;5062625;28;64938;-46
2023/04/15 05:33:47;;;;;;;;;;;;;;;32.91;65.36;100593.34;5078143;27;69621;-45
2023/04/15 05:36:18;;;;;;;;;;;;;;;32.90;65.53;100583.56;5081192;27;65886;-46
2023/04/15 05:38:50;;;;;;;;;;;;;;;32.89;65.76;100573.75;5080255;27;69719;-45
2023/04/15 05:41:21;;;;;;;;;;;;;;;32.89;65.79;100557.44;5041736;27;65066;-45
2023/04/15 05:43:53;;;;;;;;;;;;;;;32.89;65.77;100562.88;5082898;27;70015;-45
2023/04/15 05:46:24;;;;;;;;;;;;;;;32.96;65.36;100551.03;5074282;27;65909;-46
2023/04/15 05:48:56;;;;;;;;;;;;;;;33.06;65.09;100556.69;5062122;27;69771;-45
2023/04/15 05:51:27;;;;;;;;;;;;;;;33.13;64.72;100557.41;5082176;27;65164;-45
2023/04/15 05:53:59;;;;;;;;;;;;;;;33.20;64.32;100547.19;5081472;27;69812;-46
2023/04/15 05:56:30;;;;;;;;;;;;;;;33.25;63.86;100539.13;5063448;28;65921;-49
2023/04/15 05:59:02;;;;;;;;;;;;;;;33.31;63.53;100531.88;5077640;27;68934;-46
2023/04/15 06:01:34;;;;;;;;;;;;;;;33.37;63.19;100525.44;5086179;27;65469;-45
2023/04/15 06:04:05;;;;;;;;;;;;;;;33.38;63.22;100521.69;5079023;27;70077;-45
2023/04/15 06:06:37;;;;;;;;;;;;;;;33.42;63.09;100527.44;5080628;27;66119;-46
2023/04/15 06:09:08;;;;;;;;;;;;;;;33.45;63.07;100516.06;5077155;27;68981;-46
2023/04/15 06:11:40;;;;;;;;;;;;;;;33.48;62.64;100510.13;5084478;28;65382;-46
2023/04/15 06:14:12;;;;;;;;;;;;;;;33.50;62.62;100487.06;5083965;28;68553;-45
2023/04/15 06:16:43;;;;;;;;;;;;;;;33.53;62.38;100496.66;5082015;27;66477;-44
2023/04/15 06:19:15;;;;;;;;;;;;;;;33.53;62.12;100480.34;5075970;27;69357;-45
2023/04/15 06:21:46;;;;;;;;;;;;;;;33.55;62.15;100478.22;5082113;27;66438;-46
2023/04/15 06:24:18;;;;;;;;;;;;;;;33.56;62.00;100471.69;5077418;27;69174;-45
2023/04/15 06:26:49;;;;;;;;;;;;;;;33.59;61.54;100468.47;5083496;27;65910;-45
2023/04/15 06:29:21;;;;;;;;;;;;;;;33.62;61.33;100457.09;5079562;27;69744;-45
2023/04/15 06:31:52;;;;;;;;;;;;;;;33.64;61.23;100454.13;5081262;27;66119;-44
2023/04/15 06:34:24;;;;;;;;;;;;;;;33.66;60.79;100452.00;5078401;27;69892;-47
2023/04/15 06:36:56;;;;;;;;;;;;;;;33.50;60.55;100442.75;5063014;28;65485;-47
2023/04/15 06:39:28;;;;;;;;;;;;;;;33.12;59.64;100430.72;5072181;27;70049;-46
2023/04/15 06:42:00;;;;;;;;;;;;;;;32.76;58.10;100435.50;5076696;27;64828;-47
2023/04/15 06:44:31;;;;;;;;;;;;;;;32.56;57.27;100437.84;5075683;27;69627;-47
2023/04/15 06:47:03;;;;;;;;;;;;;;;32.32;57.04;100429.75;5078396;27;65523;-45
2023/04/15 06:49:34;;;;;;;;;;;;;;;32.22;55.44;100427.66;5075312;27;68638;-46
2023/04/15 06:52:06;;;;;;;;;;;;;;;32.12;54.64;100421.19;5079777;27;66828;-48
2023/04/15 06:54:37;;;;;;;;;;;;;;;32.05;59.25;100424.03;5078312;27;69152;-46
2023/04/15 06:57:09;;;;;;;;;;;;;;;32.10;62.27;100412.47;5063636;28;65708;-43
2023/04/15 06:59:41;;;;;;;;;;;;;;;32.25;63.34;100399.19;5081131;28;69620;-46
2023/04/15 07:02:13;;;;;;;;;;;;;;;32.41;65.41;100393.00;5081223;27;67460;-46
2023/04/15 07:04:45;;;;;;;;;;;;;;;32.56;66.70;100394.38;5070774;27;69072;-46
2023/04/15 07:07:17;;;;;;;;;;;;;;;32.63;67.66;100389.66;5076937;27;65186;-48
2023/04/15 07:09:48;;;;;;;;;;;;;;;32.79;67.89;100380.72;5080503;27;69728;-44
2023/04/15 07:12:20;;;;;;;;;;;;;;;32.42;68.25;100313.22;5076961;27;65648;-46
2023/04/15 07:14:51;;;;;;;;;;;;;;;32.84;70.11;100372.63;5080743;28;69866;-45
2023/04/15 07:17:23;;;;;;;;;;;;;;;32.86;69.29;100362.34;5080256;27;66148;-45
2023/04/15 07:19:54;;;;;;;;;;;;;;;32.94;68.59;100359.22;5077366;28;69605;-44
2023/04/15 07:22:26;;;;;;;;;;;;;;;32.97;68.50;100359.78;5078914;27;66340;-45
2023/04/15 07:24:57;;;;;;;;;;;;;;;32.98;67.96;100348.66;5074521;27;69935;-44
2023/04/15 07:27:29;;;;;;;;;;;;;;;32.99;67.99;100346.75;5079438;27;66048;-42
2023/04/15 07:30:01;;;;;;;;;;;;;;;33.00;67.56;100343.84;5077933;27;69791;-46
2023/04/15 07:32:32;;;;;;;;;;;;;;;33.03;67.35;100345.25;5079769;27;66175;-45
2023/04/15 07:35:04;;;;;;;;;;;;;;;33.12;67.07;100336.41;5080189;27;69085;-45
2023/04/15 07:37:36;;;;;;;;;;;;;;;33.18;66.67;100331.88;5077167;27;65848;-45
2023/04/15 07:40:07;;;;;;;;;;;;;;;33.29;67.00;100328.25;5077253;27;68933;-45
2023/04/15 07:42:39;;;;;;;;;;;;;;;33.37;66.28;100330.53;5062758;28;67854;-44
2023/04/15 07:45:11;;;;;;;;;;;;;;;33.45;66.09;100318.41;5073864;27;69882;-44
2023/04/15 07:47:43;;;;;;;;;;;;;;;33.52;65.26;100304.66;5071514;27;66316;-43
2023/04/15 07:50:15;;;;;;;;;;;;;;;33.61;64.74;100291.47;5070136;27;70939;-44
2023/04/15 07:52:47;;;;;;;;;;;;;;;33.66;64.46;100289.63;5077916;27;66681;-44
2023/04/15 07:55:21;;;;;;;;;;;;;;;33.69;65.32;100300.00;5078609;27;70568;-41
2023/04/15 07:57:54;;;;;;;;;;;;;;;33.49;63.88;100302.41;5080072;27;64527;-43
2023/04/15 08:00:25;;;;;;;;;;;;;;;33.19;63.18;100300.94;5075559;27;69848;-44
2023/04/15 08:02:58;;;;;;;;;;;;;;;32.90;60.91;100297.47;5079018;27;66761;-45
2023/04/15 08:05:30;;;;;;;;;;;;;;;32.61;60.72;100294.03;5079091;27;70219;-45
2023/04/15 08:08:01;;;;;;;;;;;;;;;32.50;60.61;100301.16;5075585;27;66280;-47
2023/04/15 08:10:33;;;;;;;;;;;;;;;32.35;60.44;100307.13;5079451;27;69227;-48
2023/04/15 08:13:04;;;;;;;;;;;;;;;32.25;58.24;100312.34;5081595;27;65795;-47
2023/04/15 08:15:36;;;;;;;;;;;;;;;32.16;58.01;100309.22;5077597;27;70257;-47
2023/04/15 08:18:08;;;;;;;;;;;;;;;32.08;58.97;100322.34;5079655;27;66416;-50
2023/04/15 08:20:40;;;;;;;;;;;;;;;31.97;59.10;100333.00;5076559;27;69480;-46
2023/04/15 08:23:11;;;;;;;;;;;;;;;31.88;58.13;100331.69;5074915;27;65255;-45
2023/04/15 08:25:43;;;;;;;;;;;;;;;31.88;59.36;100329.00;5080813;27;68991;-45
2023/04/15 08:28:16;;;;;;;;;;;;;;;31.80;59.34;100332.06;5076002;27;66827;-48
2023/04/15 08:30:48;;;;;;;;;;;;;;;31.87;59.79;100327.31;5078674;28;69795;-46
2023/04/15 08:33:19;;;;;;;;;;;;;;;32.00;59.17;100326.25;5077588;27;65714;-50
2023/04/15 08:35:51;;;;;;;;;;;;;;;32.16;58.56;100319.25;5076430;27;68921;-44
2023/04/15 08:38:23;;;;;;;;;;;;;;;32.14;58.60;100315.94;5074569;27;66702;-45
2023/04/15 08:40:57;;;;;;;;;;;;;;;31.98;58.63;100307.53;5077422;27;69648;-46
2023/04/15 08:43:32;;;;;;;;;;;;;;;31.92;59.44;100303.06;5076538;27;66276;-47
2023/04/15 08:46:04;;;;;;;;;;;;;;;31.86;58.80;100301.28;5076855;27;69797;-48
2023/04/15 08:48:38;;;;;;;;;;;;;;;31.77;58.31;100294.59;5074000;27;66078;-46
2023/04/15 08:51:10;;;;;;;;;;;;;;;31.81;60.10;100295.75;5076734;28;68926;-47
2023/04/15 08:53:42;;;;;;;;;;;;;;;31.82;59.05;100286.56;5060556;27;65748;-45
2023/04/15 08:56:15;;;;;;;;;;;;;;;31.78;57.78;100278.06;5079068;27;68905;-45
2023/04/15 08:58:47;;;;;;;;;;;;;;;31.77;57.51;100267.47;5078097;27;66069;-45
2023/04/15 09:01:18;;;;;;;;;;;;;;;31.76;57.47;100255.81;5060386;28;68871;-44
2023/04/15 09:03:50;;;;;;;;;;;;;;;31.74;56.97;100257.13;5075443;28;66060;-45
2023/04/15 09:06:23;;;;;;;;;;;;;;;31.72;58.72;100249.22;5061449;27;70685;-44
2023/04/15 09:08:54;;;;;;;;;;;;;;;31.66;58.43;100241.22;5080469;27;65850;-46
2023/04/15 09:11:26;;;;;;;;;;;;;;;31.64;58.10;100236.03;5078321;28;70274;-46
2023/04/15 09:13:57;;;;;;;;;;;;;;;31.69;60.78;100254.28;5080723;27;65977;-46
2023/04/15 09:16:29;;;;;;;;;;;;;;;31.70;61.02;100261.34;5079368;28;69911;-44
2023/04/15 09:19:19;;;;;;;;;;;;;;;31.73;61.45;100261.72;5080744;27;65395;-45
2023/04/15 09:21:52;;;;;;;;;;;;;;;31.38;61.43;100210.31;5080148;27;69774;-47
2023/04/15 09:24:37;;;;;;;;;;;;;;;31.72;60.68;100259.22;5081285;28;65566;-44
2023/04/15 09:27:10;;;;;;;;;;;;;;;31.68;60.41;100267.03;5078374;27;69733;-47
2023/04/15 09:29:41;;;;;;;;;;;;;;;31.67;59.65;100261.84;5061685;27;65780;-46
2023/04/15 09:32:14;;;;;;;;;;;;;;;31.69;61.10;100271.38;5083112;27;69911;-47
2023/04/15 09:34:46;;;;;;;;;;;;;;;31.65;59.94;100270.22;5079244;27;66251;-46
2023/04/15 09:37:33;;;;;;;;;;;;;;;31.59;58.74;100261.16;5077630;28;69611;-46
2023/04/15 09:40:05;;;;;;;;;;;;;;;31.51;58.01;100264.25;5082338;27;65255;-47
2023/04/15 09:42:36;;;;;;;;;;;;;;;31.46;56.64;100274.97;5081351;28;69920;-45
2023/04/15 09:45:08;;;;;;;;;;;;;;;31.41;57.33;100283.00;5081297;27;66062;-47
2023/04/15 09:47:40;;;;;;;;;;;;;;;31.48;57.40;100291.00;5080487;27;70455;-44
2023/04/15 09:50:13;;;;;;;;;;;;;;;31.48;59.12;100291.00;5079538;27;65145;-47
2023/04/15 09:52:45;;;;;;;;;;;;;;;31.50;61.49;100286.97;5075425;27;69065;-45
2023/04/15 09:55:17;;;;;;;;;;;;;;;31.50;61.25;100273.44;5075406;27;65970;-44
2023/04/15 09:57:48;;;;;;;;;;;;;;;31.46;60.19;100256.00;5084507;27;69379;-45
2023/04/15 10:00:20;;;;;;;;;;;;;;;31.44;60.76;100241.88;5081727;28;65444;-43
2023/04/15 10:02:52;;;;;;;;;;;;;;;31.49;62.38;100255.53;5064569;27;68237;-41
2023/04/15 10:05:24;;;;;;;;;;;;;;;31.49;62.66;100258.25;5082388;27;64964;-43
2023/04/15 10:07:57;;;;;;;;;;;;;;;31.42;61.13;100270.25;5071268;27;70251;-45
2023/04/15 10:10:29;;;;;;;;;;;;;;;31.34;59.19;100277.69;5078020;27;65997;-42
2023/04/15 10:13:01;;;;;;;;;;;;;;;31.27;57.95;100287.00;5080601;27;69762;-43
2023/04/15 10:15:33;;;;;;;;;;;;;;;31.25;57.32;100291.81;5081534;27;65921;-44
2023/04/15 10:18:07;;;;;;;;;;;;;;;31.21;56.76;100301.50;5079047;27;70409;-45
2023/04/15 10:20:39;;;;;;;;;;;;;;;31.19;57.00;100303.63;5079078;27;66099;-44
2023/04/15 10:23:11;;;;;;;;;;;;;;;31.24;58.06;100298.31;5080961;27;69167;-44
2023/04/15 10:25:43;;;;;;;;;;;;;;;31.22;58.44;100300.44;5076320;27;66086;-45
2023/04/15 10:28:16;;;;;;;;;;;;;;;31.20;59.09;100313.38;5078368;27;69063;-43
2023/04/15 10:30:48;;;;;;;;;;;;;;;31.16;56.63;100321.16;5080899;28;64490;-41
2023/04/15 10:33:21;;;;;;;;;;;;;;;31.22;62.53;100336.47;5080106;27;69649;-41
2023/04/15 10:35:54;;;;;;;;;;;;;;;31.43;66.60;100324.25;5079201;27;66390;-42
2023/04/15 10:38:32;;;;;;;;;;;;;;;31.65;70.17;100318.19;5063615;28;69910;-42
2023/04/15 10:41:13;;;;;;;;;;;;;;;31.84;72.00;100327.81;5076697;27;66265;-45
2023/04/15 10:44:08;;;;;;;;;;;;;;;31.97;71.90;100354.69;5079428;27;69719;-43
2023/04/15 10:46:40;;;;;;;;;;;;;;;32.07;73.46;100369.53;5076895;27;65389;-42
2023/04/15 10:49:13;;;;;;;;;;;;;;;32.18;74.20;100374.09;5080046;27;68955;-43
2023/04/15 10:51:51;;;;;;;;;;;;;;;32.24;74.56;100378.56;5079888;27;65555;-43
2023/04/15 10:54:25;;;;;;;;;;;;;;;32.30;74.91;100374.88;5072772;27;69756;-43
2023/04/15 10:57:02;;;;;;;;;;;;;;;32.33;75.39;100379.81;5079942;27;66157;-48
2023/04/15 10:59:38;;;;;;;;;;;;;;;32.36;75.24;100379.34;5079831;27;69893;-43
2023/04/15 11:02:12;;;;;;;;;;;;;;;32.37;76.47;100380.97;5078516;28;66333;-42
2023/04/15 11:04:53;;;;;;;;;;;;;;;32.42;76.38;100391.94;5076897;27;69917;-40
2023/04/15 11:07:38;;;;;;;;;;;;;;;32.44;76.76;100403.38;5079030;27;66007;-48
2023/04/15 11:10:25;;;;;;;;;;;;;;;32.46;76.70;100404.00;5079186;28;70876;-42
2023/04/15 11:12:57;;;;;;;;;;;;;;;32.43;76.27;100412.59;5075026;27;67005;-44
2023/04/15 11:15:40;;;;;;;;;;;;;;;32.50;76.95;100423.34;5073495;27;70508;-43
2023/04/15 11:18:12;;;;;;;;;;;;;;;32.51;77.96;100424.16;5077485;27;65902;-44
2023/04/15 11:20:51;;;;;;;;;;;;;;;32.55;77.70;100419.91;5079236;27;69933;-42
2023/04/15 11:23:33;;;;;;;;;;;;;;;32.55;78.16;100419.91;5077777;28;65189;-43
2023/04/15 11:26:08;;;;;;;;;;;;;;;32.52;75.27;100425.81;5079426;27;70476;-47
2023/04/15 11:28:40;;;;;;;;;;;;;;;32.26;70.02;100406.28;5075678;27;66540;-44
2023/04/15 11:31:13;;;;;;;;;;;;;;;31.96;67.13;100401.88;5076597;27;69755;-42
2023/04/15 11:33:58;;;;;;;;;;;;;;;31.68;67.14;100404.47;5076822;27;67280;-44
2023/04/15 11:36:30;;;;;;;;;;;;;;;31.44;64.52;100407.19;5092305;27;69573;-44
2023/04/15 11:39:02;;;;;;;;;;;;;;;31.36;63.13;100429.22;5059897;27;66229;-46
2023/04/15 11:41:35;;;;;;;;;;;;;;;31.33;60.99;100456.78;5077549;28;69765;-44
2023/04/15 11:44:15;;;;;;;;;;;;;;;31.18;61.42;100459.94;5075827;27;65844;-44
2023/04/15 11:46:46;;;;;;;;;;;;;;;31.05;59.85;100444.69;5075251;27;70156;-45
2023/04/15 11:49:28;;;;;;;;;;;;;;;30.95;59.15;100433.59;5076487;27;66641;-46
2023/04/15 11:52:00;;;;;;;;;;;;;;;30.85;57.10;100422.53;5074217;27;70344;-45
2023/04/15 11:54:38;;;;;;;;;;;;;;;30.77;55.01;100409.28;5074856;27;65483;-45
2023/04/15 11:57:08;;;;;;;;;;;;;;;30.66;53.63;100419.81;5058677;27;70251;-45
2023/04/15 11:59:42;;;;;;;;;;;;;;;30.63;52.78;100419.47;5078052;27;65719;-47
2023/04/15 12:02:13;;;;;;;;;;;;;;;30.60;53.29;100407.22;5059423;28;71865;-47
2023/04/15 12:04:44;;;;;;;;;;;;;;;30.62;54.72;100413.25;5080811;27;66666;-46
2023/04/15 12:07:15;;;;;;;;;;;;;;;30.64;56.02;100427.34;5080393;28;69086;-47
2023/04/15 12:09:53;;;;;;;;;;;;;;;30.59;56.85;100454.31;5078154;27;66801;-47
2023/04/15 12:12:29;;;;;;;;;;;;;;;30.59;56.17;100489.50;5077716;27;69184;-45
2023/04/15 12:15:00;;;;;;;;;;;;;;;30.58;55.71;100506.78;5078839;27;66585;-46
2023/04/15 12:17:31;;;;;;;;;;;;;;;30.55;54.26;100514.53;5060648;28;70390;-44
2023/04/15 12:20:26;;;;;;;;;;;;;;;30.50;54.37;100513.31;5079564;27;65697;-47
2023/04/15 12:23:04;;;;;;;;;;;;;;;30.48;52.41;100511.91;5080883;27;71226;-45
2023/04/15 12:25:34;;;;;;;;;;;;;;;30.39;51.87;100515.94;5079488;27;65364;-45
2023/04/15 12:28:11;;;;;;;;;;;;;;;30.39;52.45;100527.59;5075756;28;70613;-44
2023/04/15 12:30:50;;;;;;;;;;;;;;;30.32;51.23;100526.88;5075919;28;65689;-46
2023/04/15 12:33:20;;;;;;;;;;;;;;;30.26;50.40;100517.75;5077936;27;69549;-45
2023/04/15 12:35:51;;;;;;;;;;;;;;;30.21;49.12;100501.34;5092121;27;64971;-45
2023/04/15 12:38:21;;;;;;;;;;;;;;;30.18;49.62;100501.78;5078498;27;70815;-44
2023/04/15 12:40:52;;;;;;;;;;;;;;;30.14;49.04;100519.50;5080057;27;65301;-46
2023/04/15 12:43:22;;;;;;;;;;;;;;;30.09;47.90;100549.13;5082006;27;69938;-45
2023/04/15 12:45:52;;;;;;;;;;;;;;;30.11;50.72;100552.41;5082577;28;66903;-44
2023/04/15 12:48:22;;;;;;;;;;;;;;;30.08;49.74;100563.69;5064078;28;71286;-43
2023/04/15 12:50:52;;;;;;;;;;;;;;;30.05;49.39;100580.38;5064529;27;66847;-42
2023/04/15 12:53:23;;;;;;;;;;;;;;;30.03;49.58;100588.72;5082488;27;69178;-46
2023/04/15 12:55:53;;;;;;;;;;;;;;;30.03;50.44;100590.56;5078724;28;66359;-46
2023/04/15 12:58:23;;;;;;;;;;;;;;;30.02;50.33;100591.63;5082154;27;70341;-45
2023/04/15 13:00:53;;;;;;;;;;;;;;;30.02;50.25;100592.44;5085635;27;65701;-44
2023/04/15 13:03:23;;;;;;;;;;;;;;;30.01;49.51;100568.34;5093373;27;69112;-44